sensor_id;sensor_type;location;lat;lon;timestamp;temperature;humidity
26821;DHT22;37186;51.394;5.454;2024-01-15T00:01:18;4.00;87.30
26821;DHT22;37186;51.394;5.454;2024-01-15T00:04:19;4.00;87.30
26821;DHT22;37186;51.394;5.454;2024-01-15T00:07:19;4.00;87.30
26821;DHT22;37186;51.394;5.454;2024-01-15T00:10:20;4.00;87.30
26821;DHT22;37186;51.394;5.454;2024-01-15T00:13:20;4.00;87.30
26821;DHT22;37186;51.394;5.454;2024-01-15T00:16:21;4.10;87.40
26821;DHT22;37186;51.394;5.454;2024-01-15T00:19:22;4.10;87.20
26821;DHT22;37186;51.394;5.454;2024-01-15T00:22:25;4.00;87.30
26821;DHT22;37186;51.394;5.454;2024-01-15T00:25:25;4.10;87.40
26821;DHT22;37186;51.394;5.454;2024-01-15T00:28:26;4.00;88.00
26821;DHT22;37186;51.394;5.454;2024-01-15T00:31:26;4.10;87.40
26821;DHT22;37186;51.394;5.454;2024-01-15T00:34:27;4.00;87.20
26821;DHT22;37186;51.394;5.454;2024-01-15T00:37:27;4.10;87.30
26821;DHT22;37186;51.394;5.454;2024-01-15T00:40:28;4.10;87.40
26821;DHT22;37186;51.394;5.454;2024-01-15T00:43:28;4.10;87.40
26821;DHT22;37186;51.394;5.454;2024-01-15T00:46:29;4.00;87.30
26821;DHT22;37186;51.394;5.454;2024-01-15T00:49:29;4.00;87.40
26821;DHT22;37186;51.394;5.454;2024-01-15T00:52:30;4.00;87.30
26821;DHT22;37186;51.394;5.454;2024-01-15T00:55:31;4.10;87.40
26821;DHT22;37186;51.394;5.454;2024-01-15T00:58:31;4.10;87.40
26821;DHT22;37186;51.394;5.454;2024-01-15T01:01:32;4.10;87.40
26821;DHT22;37186;51.394;5.454;2024-01-15T01:04:32;4.10;87.50
26821;DHT22;37186;51.394;5.454;2024-01-15T01:07:33;4.10;87.40
26821;DHT22;37186;51.394;5.454;2024-01-15T01:10:33;4.10;87.70
26821;DHT22;37186;51.394;5.454;2024-01-15T01:13:34;4.10;87.30
26821;DHT22;37186;51.394;5.454;2024-01-15T01:16:34;4.00;87.40
26821;DHT22;37186;51.394;5.454;2024-01-15T01:19:39;4.10;87.40
26821;DHT22;37186;51.394;5.454;2024-01-15T01:22:39;4.10;87.40
26821;DHT22;37186;51.394;5.454;2024-01-15T01:25:40;4.10;87.40
26821;DHT22;37186;51.394;5.454;2024-01-15T01:28:40;4.10;87.40
26821;DHT22;37186;51.394;5.454;2024-01-15T01:31:44;4.10;87.60
26821;DHT22;37186;51.394;5.454;2024-01-15T01:34:45;4.10;87.30
26821;DHT22;37186;51.394;5.454;2024-01-15T01:37:46;4.10;87.40
26821;DHT22;37186;51.394;5.454;2024-01-15T01:40:46;4.10;87.40
26821;DHT22;37186;51.394;5.454;2024-01-15T01:43:47;4.10;87.30
26821;DHT22;37186;51.394;5.454;2024-01-15T01:46:47;4.10;87.40
26821;DHT22;37186;51.394;5.454;2024-01-15T01:49:48;4.10;87.80
26821;DHT22;37186;51.394;5.454;2024-01-15T01:52:49;4.10;87.70
26821;DHT22;37186;51.394;5.454;2024-01-15T01:55:50;4.10;87.40
26821;DHT22;37186;51.394;5.454;2024-01-15T01:58:51;4.10;87.40
26821;DHT22;37186;51.394;5.454;2024-01-15T02:01:53;4.10;87.40
26821;DHT22;37186;51.394;5.454;2024-01-15T02:04:54;4.10;87.50
26821;DHT22;37186;51.394;5.454;2024-01-15T02:07:55;4.10;87.60
26821;DHT22;37186;51.394;5.454;2024-01-15T02:10:56;4.10;87.40
26821;DHT22;37186;51.394;5.454;2024-01-15T02:13:56;4.10;87.40
26821;DHT22;37186;51.394;5.454;2024-01-15T02:16:57;4.10;87.30
26821;DHT22;37186;51.394;5.454;2024-01-15T02:19:57;4.10;87.40
26821;DHT22;37186;51.394;5.454;2024-01-15T02:26:05;4.10;87.40
26821;DHT22;37186;51.394;5.454;2024-01-15T02:29:07;4.10;87.30
26821;DHT22;37186;51.394;5.454;2024-01-15T02:32:11;4.10;87.30
26821;DHT22;37186;51.394;5.454;2024-01-15T02:35:12;4.10;87.20
26821;DHT22;37186;51.394;5.454;2024-01-15T02:38:12;4.10;87.40
26821;DHT22;37186;51.394;5.454;2024-01-15T02:41:13;4.10;87.20
26821;DHT22;37186;51.394;5.454;2024-01-15T02:44:14;4.10;87.20
26821;DHT22;37186;51.394;5.454;2024-01-15T02:47:15;4.10;87.30
26821;DHT22;37186;51.394;5.454;2024-01-15T02:50:15;4.10;87.30
26821;DHT22;37186;51.394;5.454;2024-01-15T02:53:16;4.00;87.40
26821;DHT22;37186;51.394;5.454;2024-01-15T02:56:17;4.00;87.40
26821;DHT22;37186;51.394;5.454;2024-01-15T02:59:17;4.00;87.30
26821;DHT22;37186;51.394;5.454;2024-01-15T03:02:18;4.00;87.40
26821;DHT22;37186;51.394;5.454;2024-01-15T03:05:18;4.00;87.40
26821;DHT22;37186;51.394;5.454;2024-01-15T03:08:20;4.00;87.30
26821;DHT22;37186;51.394;5.454;2024-01-15T03:11:22;4.00;87.40
26821;DHT22;37186;51.394;5.454;2024-01-15T03:14:23;4.00;87.30
26821;DHT22;37186;51.394;5.454;2024-01-15T03:17:26;4.00;87.30
26821;DHT22;37186;51.394;5.454;2024-01-15T03:20:27;4.00;87.30
26821;DHT22;37186;51.394;5.454;2024-01-15T03:23:27;3.90;87.20
26821;DHT22;37186;51.394;5.454;2024-01-15T03:26:28;3.90;87.20
26821;DHT22;37186;51.394;5.454;2024-01-15T03:29:28;3.90;87.40
26821;DHT22;37186;51.394;5.454;2024-01-15T03:32:29;3.90;87.30
26821;DHT22;37186;51.394;5.454;2024-01-15T03:35:29;3.90;87.30
26821;DHT22;37186;51.394;5.454;2024-01-15T03:38:31;3.90;87.60
26821;DHT22;37186;51.394;5.454;2024-01-15T03:41:31;3.90;87.60
26821;DHT22;37186;51.394;5.454;2024-01-15T03:44:32;3.90;87.80
26821;DHT22;37186;51.394;5.454;2024-01-15T03:47:32;3.90;87.60
26821;DHT22;37186;51.394;5.454;2024-01-15T03:50:33;3.90;87.70
26821;DHT22;37186;51.394;5.454;2024-01-15T03:53:33;3.90;87.60
26821;DHT22;37186;51.394;5.454;2024-01-15T03:56:34;3.90;87.70
26821;DHT22;37186;51.394;5.454;2024-01-15T03:59:34;3.90;87.60
26821;DHT22;37186;51.394;5.454;2024-01-15T04:02:35;3.90;87.40
26821;DHT22;37186;51.394;5.454;2024-01-15T04:05:35;3.90;87.50
26821;DHT22;37186;51.394;5.454;2024-01-15T04:08:36;3.90;87.70
26821;DHT22;37186;51.394;5.454;2024-01-15T04:11:36;3.90;87.60
26821;DHT22;37186;51.394;5.454;2024-01-15T04:14:37;3.90;87.70
26821;DHT22;37186;51.394;5.454;2024-01-15T04:17:38;3.90;88.00
26821;DHT22;37186;51.394;5.454;2024-01-15T04:20:47;3.90;87.80
26821;DHT22;37186;51.394;5.454;2024-01-15T04:23:47;3.90;88.20
26821;DHT22;37186;51.394;5.454;2024-01-15T04:26:48;3.90;88.00
26821;DHT22;37186;51.394;5.454;2024-01-15T04:29:48;3.90;88.10
26821;DHT22;37186;51.394;5.454;2024-01-15T04:32:49;3.90;88.00
26821;DHT22;37186;51.394;5.454;2024-01-15T04:35:49;3.90;87.90
26821;DHT22;37186;51.394;5.454;2024-01-15T04:38:50;3.90;88.10
26821;DHT22;37186;51.394;5.454;2024-01-15T04:41:50;3.90;87.80
26821;DHT22;37186;51.394;5.454;2024-01-15T04:44:51;3.90;87.80
26821;DHT22;37186;51.394;5.454;2024-01-15T04:47:52;3.90;87.90
26821;DHT22;37186;51.394;5.454;2024-01-15T04:50:52;3.90;87.90
26821;DHT22;37186;51.394;5.454;2024-01-15T04:53:53;3.90;87.90
26821;DHT22;37186;51.394;5.454;2024-01-15T04:56:53;3.90;87.80
26821;DHT22;37186;51.394;5.454;2024-01-15T04:59:54;3.90;87.70
26821;DHT22;37186;51.394;5.454;2024-01-15T05:02:54;3.90;87.90
26821;DHT22;37186;51.394;5.454;2024-01-15T05:05:56;3.90;87.90
26821;DHT22;37186;51.394;5.454;2024-01-15T05:08:56;3.90;88.00
26821;DHT22;37186;51.394;5.454;2024-01-15T05:11:57;3.90;88.00
26821;DHT22;37186;51.394;5.454;2024-01-15T05:14:57;3.90;88.10
26821;DHT22;37186;51.394;5.454;2024-01-15T05:17:58;3.90;87.90
26821;DHT22;37186;51.394;5.454;2024-01-15T05:20:58;3.90;87.90
26821;DHT22;37186;51.394;5.454;2024-01-15T05:23:59;3.90;87.90
26821;DHT22;37186;51.394;5.454;2024-01-15T05:26:59;3.90;87.80
26821;DHT22;37186;51.394;5.454;2024-01-15T05:30:00;3.90;87.80
26821;DHT22;37186;51.394;5.454;2024-01-15T05:33:01;3.90;87.70
26821;DHT22;37186;51.394;5.454;2024-01-15T05:36:01;4.00;88.60
26821;DHT22;37186;51.394;5.454;2024-01-15T05:39:02;4.00;87.90
26821;DHT22;37186;51.394;5.454;2024-01-15T05:42:03;4.00;87.80
26821;DHT22;37186;51.394;5.454;2024-01-15T05:45:04;4.00;88.10
26821;DHT22;37186;51.394;5.454;2024-01-15T05:48:05;4.00;87.70
26821;DHT22;37186;51.394;5.454;2024-01-15T05:51:06;4.00;87.80
26821;DHT22;37186;51.394;5.454;2024-01-15T05:54:06;4.00;87.70
26821;DHT22;37186;51.394;5.454;2024-01-15T05:57:07;4.10;87.70
26821;DHT22;37186;51.394;5.454;2024-01-15T06:00:08;4.10;87.90
26821;DHT22;37186;51.394;5.454;2024-01-15T06:03:09;4.10;87.80
26821;DHT22;37186;51.394;5.454;2024-01-15T06:06:10;4.00;87.70
26821;DHT22;37186;51.394;5.454;2024-01-15T06:09:10;4.10;88.10
26821;DHT22;37186;51.394;5.454;2024-01-15T06:12:11;4.10;87.80
26821;DHT22;37186;51.394;5.454;2024-01-15T06:15:11;4.10;88.00
26821;DHT22;37186;51.394;5.454;2024-01-15T06:18:12;4.10;87.90
26821;DHT22;37186;51.394;5.454;2024-01-15T06:21:13;4.10;87.90
26821;DHT22;37186;51.394;5.454;2024-01-15T06:24:14;4.10;87.90
26821;DHT22;37186;51.394;5.454;2024-01-15T06:27:16;4.10;88.10
26821;DHT22;37186;51.394;5.454;2024-01-15T06:30:16;4.00;87.80
26821;DHT22;37186;51.394;5.454;2024-01-15T06:33:17;4.10;88.10
26821;DHT22;37186;51.394;5.454;2024-01-15T06:36:17;4.10;88.00
26821;DHT22;37186;51.394;5.454;2024-01-15T06:39:18;4.10;88.00
26821;DHT22;37186;51.394;5.454;2024-01-15T06:42:18;4.10;88.10
26821;DHT22;37186;51.394;5.454;2024-01-15T06:45:19;4.10;87.90
26821;DHT22;37186;51.394;5.454;2024-01-15T06:48:20;4.00;88.10
26821;DHT22;37186;51.394;5.454;2024-01-15T06:51:20;4.00;88.70
26821;DHT22;37186;51.394;5.454;2024-01-15T06:54:23;4.00;88.00
26821;DHT22;37186;51.394;5.454;2024-01-15T06:57:24;4.00;88.00
26821;DHT22;37186;51.394;5.454;2024-01-15T07:00:25;4.00;87.80
26821;DHT22;37186;51.394;5.454;2024-01-15T07:03:26;4.00;88.10
26821;DHT22;37186;51.394;5.454;2024-01-15T07:06:26;4.00;87.80
26821;DHT22;37186;51.394;5.454;2024-01-15T07:09:27;4.00;88.00
26821;DHT22;37186;51.394;5.454;2024-01-15T07:12:27;3.90;88.00
26821;DHT22;37186;51.394;5.454;2024-01-15T07:15:28;3.90;87.90
26821;DHT22;37186;51.394;5.454;2024-01-15T07:18:28;3.90;88.00
26821;DHT22;37186;51.394;5.454;2024-01-15T07:21:29;3.90;88.00
26821;DHT22;37186;51.394;5.454;2024-01-15T07:24:30;3.90;88.10
26821;DHT22;37186;51.394;5.454;2024-01-15T07:27:31;3.90;88.10
26821;DHT22;37186;51.394;5.454;2024-01-15T07:30:32;3.90;88.20
26821;DHT22;37186;51.394;5.454;2024-01-15T07:33:32;3.90;88.10
26821;DHT22;37186;51.394;5.454;2024-01-15T07:36:33;3.90;88.00
26821;DHT22;37186;51.394;5.454;2024-01-15T07:39:33;3.90;88.10
26821;DHT22;37186;51.394;5.454;2024-01-15T07:42:35;3.80;88.00
26821;DHT22;37186;51.394;5.454;2024-01-15T07:45:35;3.80;88.10
26821;DHT22;37186;51.394;5.454;2024-01-15T07:48:36;3.80;88.30
26821;DHT22;37186;51.394;5.454;2024-01-15T07:51:36;3.80;88.20
26821;DHT22;37186;51.394;5.454;2024-01-15T07:54:37;3.80;88.40
26821;DHT22;37186;51.394;5.454;2024-01-15T07:57:37;3.70;88.40
26821;DHT22;37186;51.394;5.454;2024-01-15T08:00:38;3.70;88.60
26821;DHT22;37186;51.394;5.454;2024-01-15T08:03:39;3.70;88.40
26821;DHT22;37186;51.394;5.454;2024-01-15T08:06:39;3.70;88.30
26821;DHT22;37186;51.394;5.454;2024-01-15T08:09:40;3.70;88.50
26821;DHT22;37186;51.394;5.454;2024-01-15T08:12:40;3.70;88.40
26821;DHT22;37186;51.394;5.454;2024-01-15T08:15:41;3.70;88.40
26821;DHT22;37186;51.394;5.454;2024-01-15T08:18:42;3.60;88.50
26821;DHT22;37186;51.394;5.454;2024-01-15T08:21:44;3.60;88.40
26821;DHT22;37186;51.394;5.454;2024-01-15T08:24:44;3.60;88.50
26821;DHT22;37186;51.394;5.454;2024-01-15T08:27:45;3.60;88.50
26821;DHT22;37186;51.394;5.454;2024-01-15T08:30:46;3.60;88.50
26821;DHT22;37186;51.394;5.454;2024-01-15T08:33:47;3.60;88.60
26821;DHT22;37186;51.394;5.454;2024-01-15T08:36:47;3.60;88.60
26821;DHT22;37186;51.394;5.454;2024-01-15T08:39:48;3.60;88.90
26821;DHT22;37186;51.394;5.454;2024-01-15T08:42:48;3.60;88.80
26821;DHT22;37186;51.394;5.454;2024-01-15T08:45:49;3.70;88.50
26821;DHT22;37186;51.394;5.454;2024-01-15T08:48:50;3.70;88.50
26821;DHT22;37186;51.394;5.454;2024-01-15T08:51:51;3.60;88.90
26821;DHT22;37186;51.394;5.454;2024-01-15T08:54:52;3.60;88.90
26821;DHT22;37186;51.394;5.454;2024-01-15T08:57:53;3.60;89.10
26821;DHT22;37186;51.394;5.454;2024-01-15T09:00:53;3.50;89.00
26821;DHT22;37186;51.394;5.454;2024-01-15T09:03:54;3.50;89.30
26821;DHT22;37186;51.394;5.454;2024-01-15T09:06:54;3.50;89.10
26821;DHT22;37186;51.394;5.454;2024-01-15T09:09:55;3.50;88.90
26821;DHT22;37186;51.394;5.454;2024-01-15T09:12:55;3.50;89.30
26821;DHT22;37186;51.394;5.454;2024-01-15T09:15:58;3.50;90.00
26821;DHT22;37186;51.394;5.454;2024-01-15T09:18:59;3.50;89.10
26821;DHT22;37186;51.394;5.454;2024-01-15T09:22:00;3.50;89.30
26821;DHT22;37186;51.394;5.454;2024-01-15T09:25:00;3.40;89.30
26821;DHT22;37186;51.394;5.454;2024-01-15T09:28:01;3.40;89.00
26821;DHT22;37186;51.394;5.454;2024-01-15T09:31:02;3.40;89.20
26821;DHT22;37186;51.394;5.454;2024-01-15T09:34:03;3.40;89.30
26821;DHT22;37186;51.394;5.454;2024-01-15T09:37:04;3.40;89.40
26821;DHT22;37186;51.394;5.454;2024-01-15T09:40:06;3.40;89.30
26821;DHT22;37186;51.394;5.454;2024-01-15T09:43:08;3.40;89.50
26821;DHT22;37186;51.394;5.454;2024-01-15T09:46:09;3.40;89.40
26821;DHT22;37186;51.394;5.454;2024-01-15T09:49:10;3.40;89.60
26821;DHT22;37186;51.394;5.454;2024-01-15T09:52:11;3.40;89.80
26821;DHT22;37186;51.394;5.454;2024-01-15T09:55:13;3.40;89.50
26821;DHT22;37186;51.394;5.454;2024-01-15T09:58:15;3.40;89.60
26821;DHT22;37186;51.394;5.454;2024-01-15T10:01:17;3.40;89.70
26821;DHT22;37186;51.394;5.454;2024-01-15T10:04:17;3.40;89.30
26821;DHT22;37186;51.394;5.454;2024-01-15T10:07:18;3.40;89.20
26821;DHT22;37186;51.394;5.454;2024-01-15T10:10:19;3.40;89.40
26821;DHT22;37186;51.394;5.454;2024-01-15T10:13:22;3.50;89.60
26821;DHT22;37186;51.394;5.454;2024-01-15T10:16:23;3.50;89.30
26821;DHT22;37186;51.394;5.454;2024-01-15T10:19:23;3.50;89.50
26821;DHT22;37186;51.394;5.454;2024-01-15T10:22:24;3.50;89.30
26821;DHT22;37186;51.394;5.454;2024-01-15T10:25:26;3.50;89.30
26821;DHT22;37186;51.394;5.454;2024-01-15T10:28:27;3.50;89.30
26821;DHT22;37186;51.394;5.454;2024-01-15T10:31:27;3.50;89.60
26821;DHT22;37186;51.394;5.454;2024-01-15T10:34:30;3.50;89.50
26821;DHT22;37186;51.394;5.454;2024-01-15T10:37:33;3.60;89.50
26821;DHT22;37186;51.394;5.454;2024-01-15T10:40:34;3.60;89.50
26821;DHT22;37186;51.394;5.454;2024-01-15T10:43:35;3.60;89.40
26821;DHT22;37186;51.394;5.454;2024-01-15T10:46:35;3.60;89.40
26821;DHT22;37186;51.394;5.454;2024-01-15T10:49:36;3.70;89.40
26821;DHT22;37186;51.394;5.454;2024-01-15T10:52:39;3.60;89.80
26821;DHT22;37186;51.394;5.454;2024-01-15T10:55:43;3.70;89.80
26821;DHT22;37186;51.394;5.454;2024-01-15T10:58:46;3.70;89.70
26821;DHT22;37186;51.394;5.454;2024-01-15T11:01:48;3.70;89.90
26821;DHT22;37186;51.394;5.454;2024-01-15T11:04:49;3.70;89.90
26821;DHT22;37186;51.394;5.454;2024-01-15T11:07:49;3.70;89.90
26821;DHT22;37186;51.394;5.454;2024-01-15T11:10:51;3.80;89.80
26821;DHT22;37186;51.394;5.454;2024-01-15T11:13:52;3.80;90.00
26821;DHT22;37186;51.394;5.454;2024-01-15T11:16:57;3.80;89.90
26821;DHT22;37186;51.394;5.454;2024-01-15T11:19:59;3.80;90.00
26821;DHT22;37186;51.394;5.454;2024-01-15T11:23:00;3.70;89.90
26821;DHT22;37186;51.394;5.454;2024-01-15T11:26:00;3.80;89.80
26821;DHT22;37186;51.394;5.454;2024-01-15T11:32:33;3.80;90.00
26821;DHT22;37186;51.394;5.454;2024-01-15T11:35:49;3.80;89.80
26821;DHT22;37186;51.394;5.454;2024-01-15T11:38:50;3.80;90.00
26821;DHT22;37186;51.394;5.454;2024-01-15T11:41:54;3.80;90.00
26821;DHT22;37186;51.394;5.454;2024-01-15T11:44:55;3.90;90.00
26821;DHT22;37186;51.394;5.454;2024-01-15T11:48:11;3.80;90.00
26821;DHT22;37186;51.394;5.454;2024-01-15T11:51:12;3.90;90.00
26821;DHT22;37186;51.394;5.454;2024-01-15T11:54:14;3.90;90.00
26821;DHT22;37186;51.394;5.454;2024-01-15T11:57:21;3.90;89.80
26821;DHT22;37186;51.394;5.454;2024-01-15T12:00:24;3.90;89.70
26821;DHT22;37186;51.394;5.454;2024-01-15T12:03:25;3.90;89.50
26821;DHT22;37186;51.394;5.454;2024-01-15T12:06:25;3.90;89.40
26821;DHT22;37186;51.394;5.454;2024-01-15T12:09:26;3.90;89.40
26821;DHT22;37186;51.394;5.454;2024-01-15T12:16:01;3.90;89.50
26821;DHT22;37186;51.394;5.454;2024-01-15T12:19:04;3.90;89.80
26821;DHT22;37186;51.394;5.454;2024-01-15T12:22:06;3.80;89.80
26821;DHT22;37186;51.394;5.454;2024-01-15T12:25:07;3.90;89.80
26821;DHT22;37186;51.394;5.454;2024-01-15T12:28:08;3.90;89.50
26821;DHT22;37186;51.394;5.454;2024-01-15T12:31:08;3.90;89.40
26821;DHT22;37186;51.394;5.454;2024-01-15T12:34:09;3.90;89.80
26821;DHT22;37186;51.394;5.454;2024-01-15T12:37:10;3.90;89.60
26821;DHT22;37186;51.394;5.454;2024-01-15T12:40:12;3.90;89.70
26821;DHT22;37186;51.394;5.454;2024-01-15T12:43:13;3.90;89.90
26821;DHT22;37186;51.394;5.454;2024-01-15T12:46:14;3.90;89.80
26821;DHT22;37186;51.394;5.454;2024-01-15T12:49:14;4.00;89.80
26821;DHT22;37186;51.394;5.454;2024-01-15T12:52:15;4.00;89.70
26821;DHT22;37186;51.394;5.454;2024-01-15T12:55:15;4.00;89.70
26821;DHT22;37186;51.394;5.454;2024-01-15T12:58:17;4.00;89.60
26821;DHT22;37186;51.394;5.454;2024-01-15T13:01:17;4.00;89.70
26821;DHT22;37186;51.394;5.454;2024-01-15T13:04:22;4.00;89.70
26821;DHT22;37186;51.394;5.454;2024-01-15T13:07:23;4.10;89.90
26821;DHT22;37186;51.394;5.454;2024-01-15T13:10:24;4.10;89.70
26821;DHT22;37186;51.394;5.454;2024-01-15T13:13:25;4.00;89.60
26821;DHT22;37186;51.394;5.454;2024-01-15T13:16:25;4.10;89.70
26821;DHT22;37186;51.394;5.454;2024-01-15T13:19:29;4.10;89.90
26821;DHT22;37186;51.394;5.454;2024-01-15T13:22:30;4.10;89.80
26821;DHT22;37186;51.394;5.454;2024-01-15T13:25:32;4.10;89.80
26821;DHT22;37186;51.394;5.454;2024-01-15T13:28:34;4.10;89.60
26821;DHT22;37186;51.394;5.454;2024-01-15T13:31:34;4.00;89.50
26821;DHT22;37186;51.394;5.454;2024-01-15T13:34:35;4.00;89.30
26821;DHT22;37186;51.394;5.454;2024-01-15T13:37:35;4.00;89.40
26821;DHT22;37186;51.394;5.454;2024-01-15T13:40:38;3.90;89.40
26821;DHT22;37186;51.394;5.454;2024-01-15T13:43:38;3.90;89.30
26821;DHT22;37186;51.394;5.454;2024-01-15T13:46:39;3.90;89.40
26821;DHT22;37186;51.394;5.454;2024-01-15T13:49:39;3.90;89.30
26821;DHT22;37186;51.394;5.454;2024-01-15T13:52:40;3.90;89.40
26821;DHT22;37186;51.394;5.454;2024-01-15T13:55:41;3.90;89.30
26821;DHT22;37186;51.394;5.454;2024-01-15T13:58:41;3.90;89.30
26821;DHT22;37186;51.394;5.454;2024-01-15T14:01:43;3.90;89.40
26821;DHT22;37186;51.394;5.454;2024-01-15T14:04:43;3.90;89.70
26821;DHT22;37186;51.394;5.454;2024-01-15T14:07:44;3.80;89.60
26821;DHT22;37186;51.394;5.454;2024-01-15T14:10:44;3.80;89.70
26821;DHT22;37186;51.394;5.454;2024-01-15T14:13:45;3.90;89.80
26821;DHT22;37186;51.394;5.454;2024-01-15T14:16:45;3.90;90.00
26821;DHT22;37186;51.394;5.454;2024-01-15T14:19:46;3.90;90.00
26821;DHT22;37186;51.394;5.454;2024-01-15T14:22:47;3.90;89.90
26821;DHT22;37186;51.394;5.454;2024-01-15T14:25:48;3.90;89.80
26821;DHT22;37186;51.394;5.454;2024-01-15T14:28:49;4.00;90.00
26821;DHT22;37186;51.394;5.454;2024-01-15T14:31:49;4.00;90.00
26821;DHT22;37186;51.394;5.454;2024-01-15T14:34:50;4.00;89.80
26821;DHT22;37186;51.394;5.454;2024-01-15T14:37:50;4.00;89.60
26821;DHT22;37186;51.394;5.454;2024-01-15T14:40:51;4.00;89.80
26821;DHT22;37186;51.394;5.454;2024-01-15T14:43:51;4.00;89.70
26821;DHT22;37186;51.394;5.454;2024-01-15T14:46:52;4.10;90.00
26821;DHT22;37186;51.394;5.454;2024-01-15T14:49:52;4.10;90.00
26821;DHT22;37186;51.394;5.454;2024-01-15T14:52:53;4.10;90.00
26821;DHT22;37186;51.394;5.454;2024-01-15T14:55:54;4.10;89.90
26821;DHT22;37186;51.394;5.454;2024-01-15T14:58:54;4.00;89.90
26821;DHT22;37186;51.394;5.454;2024-01-15T15:01:55;4.10;90.00
26821;DHT22;37186;51.394;5.454;2024-01-15T15:04:57;4.10;89.60
26821;DHT22;37186;51.394;5.454;2024-01-15T15:07:57;4.10;89.70
26821;DHT22;37186;51.394;5.454;2024-01-15T15:10:58;4.10;89.60
26821;DHT22;37186;51.394;5.454;2024-01-15T15:13:58;4.10;89.70
26821;DHT22;37186;51.394;5.454;2024-01-15T15:17:00;4.00;89.80
26821;DHT22;37186;51.394;5.454;2024-01-15T15:20:01;4.00;89.70
26821;DHT22;37186;51.394;5.454;2024-01-15T15:23:03;4.00;89.70
26821;DHT22;37186;51.394;5.454;2024-01-15T15:26:05;4.00;89.80
26821;DHT22;37186;51.394;5.454;2024-01-15T15:29:06;4.00;89.60
26821;DHT22;37186;51.394;5.454;2024-01-15T15:32:06;4.00;89.80
26821;DHT22;37186;51.394;5.454;2024-01-15T15:35:07;4.00;89.60
26821;DHT22;37186;51.394;5.454;2024-01-15T15:38:08;4.00;89.50
26821;DHT22;37186;51.394;5.454;2024-01-15T15:41:08;4.00;89.50
26821;DHT22;37186;51.394;5.454;2024-01-15T15:44:09;4.00;89.60
26821;DHT22;37186;51.394;5.454;2024-01-15T15:47:10;4.00;89.40
26821;DHT22;37186;51.394;5.454;2024-01-15T15:50:10;4.00;89.40
26821;DHT22;37186;51.394;5.454;2024-01-15T15:53:11;4.00;89.50
26821;DHT22;37186;51.394;5.454;2024-01-15T15:56:12;4.00;89.30
26821;DHT22;37186;51.394;5.454;2024-01-15T15:59:12;4.00;89.30
26821;DHT22;37186;51.394;5.454;2024-01-15T16:02:13;3.90;89.30
26821;DHT22;37186;51.394;5.454;2024-01-15T16:05:15;3.90;89.20
26821;DHT22;37186;51.394;5.454;2024-01-15T16:08:15;3.90;89.30
26821;DHT22;37186;51.394;5.454;2024-01-15T16:11:17;3.90;89.20
26821;DHT22;37186;51.394;5.454;2024-01-15T16:14:18;3.90;89.20
26821;DHT22;37186;51.394;5.454;2024-01-15T16:17:18;3.90;89.30
26821;DHT22;37186;51.394;5.454;2024-01-15T16:20:19;3.90;89.30
26821;DHT22;37186;51.394;5.454;2024-01-15T16:23:20;3.90;89.20
26821;DHT22;37186;51.394;5.454;2024-01-15T16:26:21;3.80;89.30
26821;DHT22;37186;51.394;5.454;2024-01-15T16:29:21;3.80;89.30
26821;DHT22;37186;51.394;5.454;2024-01-15T16:32:23;3.80;89.30
26821;DHT22;37186;51.394;5.454;2024-01-15T16:35:23;3.80;89.20
26821;DHT22;37186;51.394;5.454;2024-01-15T16:38:24;3.80;89.20
26821;DHT22;37186;51.394;5.454;2024-01-15T16:41:24;3.70;89.20
26821;DHT22;37186;51.394;5.454;2024-01-15T16:44:25;3.70;89.30
26821;DHT22;37186;51.394;5.454;2024-01-15T16:47:25;3.70;89.10
26821;DHT22;37186;51.394;5.454;2024-01-15T16:50:26;3.70;89.30
26821;DHT22;37186;51.394;5.454;2024-01-15T16:53:26;3.70;89.30
26821;DHT22;37186;51.394;5.454;2024-01-15T16:56:27;3.70;89.10
26821;DHT22;37186;51.394;5.454;2024-01-15T16:59:28;3.70;89.20
26821;DHT22;37186;51.394;5.454;2024-01-15T17:02:30;3.70;89.30
26821;DHT22;37186;51.394;5.454;2024-01-15T17:05:31;3.60;89.20
26821;DHT22;37186;51.394;5.454;2024-01-15T17:08:31;3.60;89.30
26821;DHT22;37186;51.394;5.454;2024-01-15T17:11:32;3.60;89.10
26821;DHT22;37186;51.394;5.454;2024-01-15T17:14:32;3.60;89.00
26821;DHT22;37186;51.394;5.454;2024-01-15T17:17:33;3.60;88.90
26821;DHT22;37186;51.394;5.454;2024-01-15T17:20:33;3.60;89.00
26821;DHT22;37186;51.394;5.454;2024-01-15T17:23:34;3.60;89.00
26821;DHT22;37186;51.394;5.454;2024-01-15T17:26:35;3.60;89.10
26821;DHT22;37186;51.394;5.454;2024-01-15T17:29:36;3.60;89.10
26821;DHT22;37186;51.394;5.454;2024-01-15T17:32:36;3.60;89.00
26821;DHT22;37186;51.394;5.454;2024-01-15T17:35:37;3.60;89.10
26821;DHT22;37186;51.394;5.454;2024-01-15T17:38:37;3.60;89.10
26821;DHT22;37186;51.394;5.454;2024-01-15T17:41:38;3.60;89.10
26821;DHT22;37186;51.394;5.454;2024-01-15T17:44:39;3.60;89.00
26821;DHT22;37186;51.394;5.454;2024-01-15T17:47:39;3.60;89.10
26821;DHT22;37186;51.394;5.454;2024-01-15T17:50:41;3.50;89.00
26821;DHT22;37186;51.394;5.454;2024-01-15T17:53:41;3.50;89.00
26821;DHT22;37186;51.394;5.454;2024-01-15T17:56:42;3.50;88.90
26821;DHT22;37186;51.394;5.454;2024-01-15T17:59:42;3.50;89.00
26821;DHT22;37186;51.394;5.454;2024-01-15T18:02:43;3.50;89.00
26821;DHT22;37186;51.394;5.454;2024-01-15T18:05:43;3.50;89.00
26821;DHT22;37186;51.394;5.454;2024-01-15T18:08:44;3.50;89.00
26821;DHT22;37186;51.394;5.454;2024-01-15T18:11:45;3.50;89.00
26821;DHT22;37186;51.394;5.454;2024-01-15T18:14:45;3.50;88.90
26821;DHT22;37186;51.394;5.454;2024-01-15T18:17:46;3.40;89.00
26821;DHT22;37186;51.394;5.454;2024-01-15T18:20:46;3.40;88.90
26821;DHT22;37186;51.394;5.454;2024-01-15T18:23:47;3.40;88.90
26821;DHT22;37186;51.394;5.454;2024-01-15T18:26:50;3.40;88.90
26821;DHT22;37186;51.394;5.454;2024-01-15T18:29:52;3.40;88.70
26821;DHT22;37186;51.394;5.454;2024-01-15T18:32:53;3.40;88.90
26821;DHT22;37186;51.394;5.454;2024-01-15T18:35:53;3.40;89.00
26821;DHT22;37186;51.394;5.454;2024-01-15T18:38:53;3.40;89.00
26821;DHT22;37186;51.394;5.454;2024-01-15T18:41:54;3.40;89.10
26821;DHT22;37186;51.394;5.454;2024-01-15T18:44:55;3.40;89.00
26821;DHT22;37186;51.394;5.454;2024-01-15T18:47:55;3.30;89.60
26821;DHT22;37186;51.394;5.454;2024-01-15T18:50:56;3.30;88.80
26821;DHT22;37186;51.394;5.454;2024-01-15T18:53:57;3.30;89.00
26821;DHT22;37186;51.394;5.454;2024-01-15T18:56:57;3.30;89.70
26821;DHT22;37186;51.394;5.454;2024-01-15T18:59:58;3.30;88.90
26821;DHT22;37186;51.394;5.454;2024-01-15T19:02:58;3.30;89.00
26821;DHT22;37186;51.394;5.454;2024-01-15T19:05:59;3.30;88.90
26821;DHT22;37186;51.394;5.454;2024-01-15T19:08:59;3.30;89.00
26821;DHT22;37186;51.394;5.454;2024-01-15T19:12:00;3.30;89.00
26821;DHT22;37186;51.394;5.454;2024-01-15T19:15:00;3.30;89.00
26821;DHT22;37186;51.394;5.454;2024-01-15T19:18:02;3.30;89.20
26821;DHT22;37186;51.394;5.454;2024-01-15T19:21:03;3.30;89.20
26821;DHT22;37186;51.394;5.454;2024-01-15T19:24:03;3.30;89.00
26821;DHT22;37186;51.394;5.454;2024-01-15T19:27:04;3.30;89.10
26821;DHT22;37186;51.394;5.454;2024-01-15T19:30:05;3.30;89.10